createdAt,value
2023-04-18T00:01:58.999Z,98593.53
2023-04-18T00:05:04.146Z,98594.44
2023-04-18T00:08:08.792Z,98605.75
2023-04-18T00:11:11.873Z,98595.28
2023-04-18T00:14:17.081Z,98590.88
2023-04-18T00:17:20.381Z,98590.56
2023-04-18T00:20:26.384Z,98581.88
2023-04-18T00:23:31.114Z,98592.06
2023-04-18T00:26:34.290Z,98591.50
2023-04-18T00:29:38.008Z,98578.53
2023-04-18T00:32:41.159Z,98589.31
2023-04-18T00:35:44.371Z,98578.59
2023-04-18T00:38:48.921Z,98582.00
2023-04-18T00:41:52.252Z,98571.03
2023-04-18T00:44:55.517Z,98574.97
2023-04-18T00:47:58.804Z,98580.28
2023-04-18T00:51:02.140Z,98573.59
2023-04-18T00:54:07.981Z,98573.59
2023-04-18T00:57:11.753Z,98567.00
2023-04-18T01:00:15.731Z,98569.63
2023-04-18T01:03:19.764Z,98569.13
2023-04-18T01:06:23.586Z,98563.16
2023-04-18T01:09:28.683Z,98563.53
2023-04-18T01:12:31.978Z,98564.34
2023-04-18T01:15:36.858Z,98553.00
2023-04-18T01:18:40.855Z,98556.44
2023-04-18T01:21:45.474Z,98552.94
2023-04-18T01:24:53.076Z,98552.72
2023-04-18T01:27:58.698Z,98551.75
2023-04-18T01:31:04.464Z,98547.06
2023-04-18T01:34:08.128Z,98554.53
2023-04-18T01:37:11.629Z,98547.44
2023-04-18T01:40:17.952Z,98548.91
2023-04-18T01:43:21.093Z,98548.66
2023-04-18T01:46:24.322Z,98549.94
2023-04-18T01:49:27.690Z,98548.81
2023-04-18T01:52:31.503Z,98545.47
2023-04-18T01:55:35.939Z,98545.34
2023-04-18T01:58:39.253Z,98534.50
2023-04-18T02:01:42.682Z,98539.06
2023-04-18T02:04:45.867Z,98527.06
2023-04-18T02:07:50.328Z,98537.16
2023-04-18T02:10:55.247Z,98532.16
2023-04-18T02:13:59.527Z,98537.03
2023-04-18T02:17:02.907Z,98536.00
2023-04-18T02:20:08.248Z,98530.66
2023-04-18T02:23:11.766Z,98542.53
2023-04-18T02:26:16.589Z,98519.75
2023-04-18T02:29:19.734Z,98542.47
2023-04-18T02:32:22.938Z,98538.69
2023-04-18T02:35:27.055Z,98547.41
2023-04-18T02:38:30.200Z,98547.53
2023-04-18T02:41:37.480Z,98542.66
2023-04-18T02:44:40.925Z,98539.56
2023-04-18T02:47:54.417Z,98552.28
2023-04-18T02:51:03.374Z,98545.91
2023-04-18T02:54:08.137Z,98550.28
2023-04-18T02:57:28.280Z,98545.81
2023-04-18T03:00:55.291Z,98550.44
2023-04-18T03:04:17.850Z,98544.91
2023-04-18T03:07:30.745Z,98544.44
2023-04-18T03:10:35.217Z,98538.13
2023-04-18T03:13:39.921Z,98551.56
2023-04-18T03:16:43.856Z,98548.44
2023-04-18T03:19:50.865Z,98546.03
2023-04-18T03:22:56.159Z,98548.88
2023-04-18T03:26:02.172Z,98542.72
2023-04-18T03:29:09.108Z,98542.53
2023-04-18T03:34:56.024Z,98541.91
2023-04-18T03:37:59.342Z,98536.47
2023-04-18T03:41:08.644Z,98540.47
2023-04-18T03:44:15.992Z,98543.56
2023-04-18T03:47:19.533Z,98541.78
2023-04-18T03:50:40.826Z,98542.75
2023-04-18T03:53:46.495Z,98545.56
2023-04-18T03:56:49.727Z,98541.88
2023-04-18T03:59:53.140Z,98544.88
2023-04-18T04:02:57.725Z,98544.44
2023-04-18T04:06:03.145Z,98547.44
2023-04-18T04:09:15.271Z,98552.16
2023-04-18T04:12:18.674Z,98556.00
2023-04-18T04:15:22.077Z,98558.84
2023-04-18T04:18:31.842Z,98570.13
2023-04-18T04:21:39.659Z,98568.97
2023-04-18T04:24:46.834Z,98571.31
2023-04-18T04:27:53.603Z,98563.31
2023-04-18T04:30:59.263Z,98575.19
2023-04-18T04:34:03.280Z,98574.97
2023-04-18T04:37:09.031Z,98577.41
2023-04-18T04:40:20.726Z,98581.53
2023-04-18T04:43:41.193Z,98588.94
2023-04-18T04:46:47.902Z,98581.78
2023-04-18T04:49:56.698Z,98583.47
2023-04-18T04:53:01.302Z,98577.53
2023-04-18T04:56:05.992Z,98572.44
2023-04-18T04:59:10.222Z,98583.09
2023-04-18T05:02:18.011Z,98585.91
2023-04-18T05:05:21.226Z,98582.25
2023-04-18T05:08:26.183Z,98587.38
2023-04-18T05:11:29.364Z,98587.00
2023-04-18T05:14:32.504Z,98586.19
2023-04-18T05:17:35.940Z,98590.22
2023-04-18T05:20:39.142Z,98590.16
2023-04-18T05:23:43.744Z,98590.72
2023-04-18T05:26:46.842Z,98601.19
2023-04-18T05:29:50.302Z,98591.47
2023-04-18T05:32:53.529Z,98597.31
2023-04-18T05:35:57.415Z,98594.31
2023-04-18T05:39:02.155Z,98598.50
2023-04-18T05:42:05.400Z,98592.88
2023-04-18T05:45:09.709Z,98602.50
2023-04-18T05:48:12.851Z,98604.28
2023-04-18T05:51:15.978Z,98599.72
2023-04-18T05:54:21.347Z,98606.34
2023-04-18T05:57:32.073Z,98605.59
2023-04-18T06:00:35.981Z,98604.66
2023-04-18T06:03:42.265Z,98606.00
2023-04-18T06:06:46.068Z,98612.91
2023-04-18T06:09:50.571Z,98605.19
2023-04-18T06:12:53.736Z,98608.06
2023-04-18T06:15:56.901Z,98615.13
2023-04-18T06:19:01.393Z,98619.69
2023-04-18T06:22:04.769Z,98621.91
2023-04-18T06:25:10.539Z,98623.59
2023-04-18T06:28:13.907Z,98610.81
2023-04-18T06:31:17.093Z,98619.53
2023-04-18T06:34:20.292Z,98627.66
2023-04-18T06:37:23.783Z,98612.03
2023-04-18T06:40:35.284Z,98621.06
2023-04-18T06:43:38.493Z,98618.59
2023-04-18T06:46:41.914Z,98608.34
2023-04-18T06:49:45.052Z,98608.78
2023-04-18T06:52:50.297Z,98606.25
2023-04-18T06:55:54.817Z,98621.00
2023-04-18T06:58:58.195Z,98597.44
2023-04-18T07:02:01.333Z,98620.47
2023-04-18T07:05:04.731Z,98610.28
2023-04-18T07:08:08.418Z,98616.25
2023-04-18T07:11:13.613Z,98617.47
2023-04-18T07:14:16.949Z,98615.84
2023-04-18T07:17:20.752Z,98608.16
2023-04-18T07:20:24.167Z,98611.16
2023-04-18T07:23:27.324Z,98630.03
2023-04-18T07:26:31.818Z,98621.03
2023-04-18T07:29:34.914Z,98634.56
2023-04-18T07:32:38.196Z,98627.72
2023-04-18T07:35:41.570Z,98629.03
2023-04-18T07:38:46.213Z,98621.75
2023-04-18T07:41:53.489Z,98633.84
2023-04-18T07:44:59.167Z,98634.69
2023-04-18T07:48:02.742Z,98633.19
2023-04-18T07:51:06.157Z,98636.66
2023-04-18T07:54:11.008Z,98637.28
2023-04-18T07:57:15.601Z,98628.63
2023-04-18T08:00:19.936Z,98630.22
2023-04-18T08:03:23.304Z,98630.41
2023-04-18T08:06:26.991Z,98630.63
2023-04-18T08:09:30.649Z,98627.19
2023-04-18T08:12:36.491Z,98629.78
2023-04-18T08:15:39.602Z,98630.44
2023-04-18T08:18:42.864Z,98624.69
2023-04-18T08:21:46.071Z,98632.88
2023-04-18T08:25:03.281Z,98629.25
2023-04-18T08:28:08.895Z,98635.34
2023-04-18T08:31:13.763Z,98638.66
2023-04-18T08:34:16.969Z,98628.34
2023-04-18T08:37:20.108Z,98635.78
2023-04-18T08:40:23.422Z,98628.75
2023-04-18T08:43:30.128Z,98620.66
2023-04-18T08:46:35.825Z,98626.69
2023-04-18T08:49:39.852Z,98627.00
2023-04-18T08:52:47.364Z,98625.00
2023-04-18T08:55:54.965Z,98640.00
2023-04-18T08:59:00.259Z,98648.13
2023-04-18T09:02:05.481Z,98640.78
2023-04-18T09:05:14.103Z,98635.81
2023-04-18T09:08:24.707Z,98643.66
2023-04-18T09:11:29.747Z,98648.00
2023-04-18T09:14:36.393Z,98632.16
2023-04-18T09:17:42.220Z,98634.78
2023-04-18T09:20:47.494Z,98634.06
2023-04-18T09:23:50.824Z,98630.56
2023-04-18T09:26:55.799Z,98631.69
2023-04-18T09:30:00.744Z,98622.22
2023-04-18T09:34:59.740Z,98628.63
2023-04-18T09:38:04.029Z,98577.84
2023-04-18T09:41:11.653Z,98609.09
2023-04-18T09:44:17.073Z,98625.59
2023-04-18T09:47:20.819Z,98628.06
2023-04-18T09:50:25.583Z,98620.78
2023-04-18T09:53:30.136Z,98626.94
2023-04-18T09:56:37.160Z,98630.13
2023-04-18T09:59:47.583Z,98628.63
2023-04-18T10:02:53.344Z,98630.38
2023-04-18T10:05:58.072Z,98631.56
2023-04-18T10:09:04.725Z,98623.44
2023-04-18T10:12:08.529Z,98626.47
2023-04-18T10:15:12.671Z,98625.44
2023-04-18T10:18:17.007Z,98631.94
2023-04-18T10:21:22.299Z,98622.66
2023-04-18T10:24:47.948Z,98623.78
2023-04-18T10:28:01.767Z,98621.69
2023-04-18T10:31:05.627Z,98619.91
2023-04-18T10:34:08.900Z,98620.25
2023-04-18T10:37:13.864Z,98608.44
2023-04-18T10:40:17.646Z,98613.13
2023-04-18T10:43:21.073Z,98608.31
2023-04-18T10:46:31.084Z,98610.56
2023-04-18T10:49:37.549Z,98609.34
2023-04-18T10:52:42.654Z,98604.66
2023-04-18T10:55:55.412Z,98605.19
2023-04-18T10:59:03.075Z,98583.44
2023-04-18T11:02:15.098Z,98595.47
2023-04-18T11:05:24.905Z,98589.94
2023-04-18T11:08:30.079Z,98577.44
2023-04-18T11:11:33.258Z,98584.50
2023-04-18T11:14:43.034Z,98583.94
2023-04-18T11:17:46.303Z,98578.81
2023-04-18T11:20:52.103Z,98583.13
2023-04-18T11:23:57.038Z,98575.28
2023-04-18T11:27:00.675Z,98568.16
2023-04-18T11:30:04.023Z,98571.00
2023-04-18T11:33:08.803Z,98572.75
2023-04-18T11:36:13.772Z,98574.31
2023-04-18T11:39:18.349Z,98582.31
2023-04-18T11:42:21.888Z,98569.47
2023-04-18T11:45:24.981Z,98570.84
2023-04-18T11:48:36.186Z,98562.47
2023-04-18T11:51:39.574Z,98565.72
2023-04-18T11:54:45.933Z,98563.50
2023-04-18T11:57:52.864Z,98573.25
2023-04-18T12:00:56.107Z,98570.03
2023-04-18T12:04:04.144Z,98528.22
2023-04-18T12:07:07.718Z,98578.94
2023-04-18T12:10:26.929Z,98571.16
2023-04-18T12:13:33.031Z,98571.72
2023-04-18T12:16:36.422Z,98569.16
2023-04-18T12:19:39.778Z,98566.63
2023-04-18T12:22:46.059Z,98562.34
2023-04-18T12:25:59.780Z,98532.56
2023-04-18T12:29:03.077Z,98552.00
2023-04-18T12:32:06.610Z,98546.66
2023-04-18T12:35:10.705Z,98546.56
2023-04-18T12:38:14.127Z,98546.34
2023-04-18T12:41:18.654Z,98549.56
2023-04-18T12:44:22.639Z,98555.66
2023-04-18T12:47:25.800Z,98560.94
2023-04-18T12:50:28.954Z,98559.16
2023-04-18T12:53:32.091Z,98552.41
2023-04-18T12:56:36.624Z,98529.88
2023-04-18T12:59:39.786Z,98403.38
2023-04-18T13:02:44.351Z,98551.91
2023-04-18T13:05:47.616Z,98560.28
2023-04-18T13:08:50.892Z,98557.19
2023-04-18T13:11:55.394Z,98558.03
2023-04-18T13:14:58.606Z,98555.50
2023-04-18T13:18:04.843Z,98556.34
2023-04-18T13:21:08.419Z,98556.56
2023-04-18T13:24:11.933Z,98554.38
2023-04-18T13:27:16.499Z,98551.66
2023-04-18T13:30:20.046Z,98562.09
2023-04-18T13:33:23.203Z,98545.19
2023-04-18T13:36:26.929Z,98549.69
2023-04-18T13:39:33.818Z,98544.63
2023-04-18T13:42:39.495Z,98555.28
2023-04-18T13:45:42.783Z,98551.19
2023-04-18T13:48:45.965Z,98545.41
2023-04-18T13:51:50.453Z,98544.38
2023-04-18T13:54:53.816Z,98541.84
2023-04-18T13:57:58.450Z,98545.28
2023-04-18T14:01:01.733Z,98543.63
2023-04-18T14:04:05.291Z,98549.28
2023-04-18T14:07:09.159Z,98545.88
2023-04-18T14:10:12.566Z,98546.59
2023-04-18T14:13:17.124Z,98548.22
2023-04-18T14:16:20.345Z,98550.88
2023-04-18T14:19:23.837Z,98551.66
2023-04-18T14:22:26.957Z,98553.81
2023-04-18T14:25:34.701Z,98567.16
2023-04-18T14:28:39.190Z,98566.63
2023-04-18T14:31:42.653Z,98563.25
2023-04-18T14:34:45.932Z,98575.88
2023-04-18T14:37:49.834Z,98576.78
2023-04-18T14:40:52.991Z,98576.41
2023-04-18T14:43:57.634Z,98575.50
2023-04-18T14:47:01.454Z,98575.94
2023-04-18T14:50:05.084Z,98577.69
2023-04-18T14:53:08.801Z,98579.69
2023-04-18T14:56:11.996Z,98570.75
2023-04-18T14:59:17.190Z,98579.63
2023-04-18T15:02:20.633Z,98582.38
2023-04-18T15:05:24.512Z,98571.97
2023-04-18T15:08:27.669Z,98577.03
2023-04-18T15:11:30.825Z,98578.75
2023-04-18T15:14:35.921Z,98584.94
2023-04-18T15:17:39.177Z,98584.25
2023-04-18T15:20:42.356Z,98575.13
2023-04-18T15:23:45.547Z,98582.13
2023-04-18T15:26:48.910Z,98580.22
2023-04-18T15:29:53.483Z,98580.50
2023-04-18T15:34:56.035Z,98586.56
2023-04-18T15:37:59.234Z,98586.13
2023-04-18T15:41:02.560Z,98594.69
2023-04-18T15:44:07.837Z,98588.84
2023-04-18T15:47:11.383Z,98588.31
2023-04-18T15:50:16.865Z,98588.75
2023-04-18T15:53:20.457Z,98591.56
2023-04-18T15:56:23.635Z,98595.84
2023-04-18T15:59:26.803Z,98593.38
2023-04-18T16:02:30.074Z,98593.00
2023-04-18T16:05:34.628Z,98596.31
2023-04-18T16:08:38.288Z,98599.59
2023-04-18T16:11:41.477Z,98602.72
2023-04-18T16:14:44.572Z,98602.28
2023-04-18T16:17:47.854Z,98605.06
2023-04-18T16:20:52.323Z,98609.78
2023-04-18T16:23:55.472Z,98609.31
2023-04-18T16:26:58.631Z,98610.38
2023-04-18T16:30:02.191Z,98609.06
2023-04-18T16:33:06.768Z,98616.59
2023-04-18T16:36:11.275Z,98617.16
2023-04-18T16:39:15.753Z,98623.91
2023-04-18T16:42:19.183Z,98623.50
2023-04-18T16:45:22.286Z,98624.03
2023-04-18T16:48:25.725Z,98604.25
2023-04-18T16:51:30.419Z,98627.72
2023-04-18T16:54:33.504Z,98630.78
2023-04-18T16:57:36.665Z,98636.19
2023-04-18T17:00:39.884Z,98636.03
2023-04-18T17:03:43.197Z,98546.88
2023-04-18T17:06:48.843Z,98645.19
2023-04-18T17:09:53.048Z,98655.56
2023-04-18T17:12:58.549Z,98651.41
2023-04-18T17:16:01.919Z,98658.59
2023-04-18T17:19:05.598Z,98654.84
2023-04-18T17:22:10.204Z,98651.66
2023-04-18T17:25:13.488Z,98666.19
2023-04-18T17:28:16.871Z,98661.97
2023-04-18T17:31:22.202Z,98664.00
2023-04-18T17:34:25.557Z,98662.22
2023-04-18T17:37:30.129Z,98665.72
2023-04-18T17:40:33.468Z,98674.72
2023-04-18T17:43:36.636Z,98588.53
2023-04-18T17:46:39.832Z,98674.69
2023-04-18T17:49:43.014Z,98676.56
2023-04-18T17:52:47.630Z,98669.72
2023-04-18T17:55:52.109Z,98678.91
2023-04-18T17:58:56.781Z,98684.31
2023-04-18T18:02:00.047Z,98688.88
2023-04-18T18:05:03.472Z,98688.78
2023-04-18T18:08:08.157Z,98684.19
2023-04-18T18:11:11.612Z,98696.81
2023-04-18T18:14:14.789Z,98698.59
2023-04-18T18:17:17.948Z,98700.88
2023-04-18T18:20:21.162Z,98704.25
2023-04-18T18:23:25.699Z,98709.41
2023-04-18T18:26:28.817Z,98715.69
2023-04-18T18:29:32.217Z,98718.19
2023-04-18T18:32:35.449Z,98714.88
2023-04-18T18:35:38.629Z,98726.75
2023-04-18T18:38:43.471Z,98724.09
2023-04-18T18:41:46.597Z,98728.44
2023-04-18T18:44:49.892Z,98721.75
2023-04-18T18:47:53.179Z,98727.63
2023-04-18T18:50:57.199Z,98735.56
2023-04-18T18:54:01.838Z,98736.13
2023-04-18T18:57:05.192Z,98740.47
2023-04-18T19:00:11.961Z,98730.13
2023-04-18T19:03:18.327Z,98745.47
2023-04-18T19:06:21.624Z,98745.75
2023-04-18T19:09:28.544Z,98752.31
2023-04-18T19:12:31.958Z,98757.13
2023-04-18T19:15:35.075Z,98758.75
2023-04-18T19:18:38.482Z,98759.66
2023-04-18T19:21:45.739Z,98762.59
2023-04-18T19:24:50.311Z,98761.41
2023-04-18T19:27:53.541Z,98760.78
2023-04-18T19:30:56.712Z,98764.47
2023-04-18T19:33:59.929Z,98764.56
2023-04-18T19:37:03.576Z,98758.06
2023-04-18T19:40:09.581Z,98770.69
2023-04-18T19:43:12.818Z,98780.06
2023-04-18T19:46:16.055Z,98767.47
2023-04-18T19:49:19.301Z,98778.25
2023-04-18T19:52:22.523Z,98778.34
2023-04-18T19:55:27.260Z,98777.81
2023-04-18T19:58:37.894Z,98779.22
2023-04-18T20:01:41.116Z,98778.00
2023-04-18T20:04:44.910Z,98783.09
2023-04-18T20:07:48.234Z,98779.81
2023-04-18T20:10:52.842Z,98785.03
2023-04-18T20:13:56.549Z,98766.91
2023-04-18T20:16:59.689Z,98776.31
2023-04-18T20:20:03.089Z,98780.13
2023-04-18T20:23:06.365Z,98778.44
2023-04-18T20:26:10.851Z,98780.25
2023-04-18T20:29:14.201Z,98784.56
2023-04-18T20:32:17.574Z,98782.19
2023-04-18T20:35:20.865Z,98779.22
2023-04-18T20:38:26.016Z,98780.34
2023-04-18T20:41:32.383Z,98778.72
2023-04-18T20:44:36.005Z,98768.53
2023-04-18T20:47:41.072Z,98772.44
2023-04-18T20:50:50.741Z,98770.22
2023-04-18T20:53:53.977Z,98776.13
2023-04-18T20:56:58.488Z,98770.22
2023-04-18T21:00:01.751Z,98773.88
2023-04-18T21:03:05.182Z,98774.66
2023-04-18T21:06:08.570Z,98779.63
2023-04-18T21:09:11.808Z,98775.50
2023-04-18T21:12:16.581Z,98772.84
2023-04-18T21:15:19.694Z,98778.09
2023-04-18T21:18:22.852Z,98773.78
2023-04-18T21:21:26.169Z,98771.59
2023-04-18T21:24:29.285Z,98771.13
2023-04-18T21:27:33.779Z,98756.75
2023-04-18T21:30:36.880Z,98775.84
2023-04-18T21:34:56.280Z,98768.25
2023-04-18T21:37:59.505Z,98774.97
2023-04-18T21:41:02.641Z,98767.00
2023-04-18T21:44:06.190Z,98769.63
2023-04-18T21:47:09.358Z,98772.63
2023-04-18T21:50:14.328Z,98767.91
2023-04-18T21:53:17.432Z,98765.00
2023-04-18T21:56:21.140Z,98756.66
2023-04-18T21:59:24.609Z,98770.66
2023-04-18T22:02:28.616Z,98759.16
2023-04-18T22:05:33.496Z,98756.75
2023-04-18T22:08:36.902Z,98767.41
2023-04-18T22:11:40.115Z,98766.47
2023-04-18T22:14:48.102Z,98756.03
2023-04-18T22:17:51.136Z,98753.09
2023-04-18T22:20:55.441Z,98759.06
2023-04-18T22:23:58.672Z,98751.84
2023-04-18T22:27:02.721Z,98742.72
2023-04-18T22:30:07.087Z,98752.19
2023-04-18T22:33:10.277Z,98753.81
2023-04-18T22:36:14.770Z,98755.69
2023-04-18T22:39:18.082Z,98758.91
2023-04-18T22:42:21.243Z,98753.06
2023-04-18T22:45:24.480Z,98754.78
2023-04-18T22:48:27.601Z,98757.41
2023-04-18T22:51:32.524Z,98753.41
2023-04-18T22:54:39.343Z,98750.81
2023-04-18T22:57:42.735Z,98752.41
2023-04-18T23:00:45.903Z,98754.50
2023-04-18T23:03:49.243Z,98754.41
2023-04-18T23:06:54.031Z,98754.75
2023-04-18T23:09:57.245Z,98754.47
2023-04-18T23:13:00.481Z,98758.28
2023-04-18T23:16:03.902Z,98754.16
2023-04-18T23:19:07.083Z,98745.84
2023-04-18T23:22:11.630Z,98751.16
2023-04-18T23:25:14.868Z,98743.25
2023-04-18T23:28:18.053Z,98722.50
2023-04-18T23:31:21.375Z,98748.88
2023-04-18T23:34:24.672Z,98754.78
2023-04-18T23:37:29.178Z,98747.22
2023-04-18T23:40:34.304Z,98749.94
2023-04-18T23:43:37.442Z,98740.88
2023-04-18T23:46:40.652Z,98739.50
2023-04-18T23:49:43.795Z,98739.13
2023-04-18T23:52:48.271Z,98730.97
2023-04-18T23:55:51.996Z,98706.91
2023-04-18T23:58:55.146Z,98729.00
